sensor_id;sensor_type;location;lat;lon;timestamp;P1;durP1;ratioP1;P2;durP2;ratioP2
10045;SDS011;5063;50.878;4.742;2023-05-10T00:00:20;11.07;;;6.07;;
10045;SDS011;5063;50.878;4.742;2023-05-10T00:02:47;9.07;;;6.20;;
10045;SDS011;5063;50.878;4.742;2023-05-10T00:05:13;14.67;;;6.70;;
10045;SDS011;5063;50.878;4.742;2023-05-10T00:07:39;10.53;;;5.97;;
10045;SDS011;5063;50.878;4.742;2023-05-10T00:10:06;9.40;;;5.70;;
10045;SDS011;5063;50.878;4.742;2023-05-10T00:12:32;11.07;;;6.43;;
10045;SDS011;5063;50.878;4.742;2023-05-10T00:14:58;8.83;;;6.30;;
10045;SDS011;5063;50.878;4.742;2023-05-10T00:17:24;7.87;;;6.13;;
10045;SDS011;5063;50.878;4.742;2023-05-10T00:19:49;10.90;;;5.93;;
10045;SDS011;5063;50.878;4.742;2023-05-10T00:22:15;9.43;;;6.00;;
10045;SDS011;5063;50.878;4.742;2023-05-10T00:24:41;8.83;;;6.37;;
10045;SDS011;5063;50.878;4.742;2023-05-10T00:27:06;11.77;;;6.47;;
10045;SDS011;5063;50.878;4.742;2023-05-10T00:29:32;12.50;;;6.20;;
10045;SDS011;5063;50.878;4.742;2023-05-10T00:31:58;11.90;;;7.37;;
10045;SDS011;5063;50.878;4.742;2023-05-10T00:34:24;10.93;;;6.83;;
10045;SDS011;5063;50.878;4.742;2023-05-10T00:36:50;13.97;;;7.20;;
10045;SDS011;5063;50.878;4.742;2023-05-10T00:39:16;11.57;;;5.73;;
10045;SDS011;5063;50.878;4.742;2023-05-10T00:41:41;11.50;;;7.03;;
10045;SDS011;5063;50.878;4.742;2023-05-10T00:44:07;11.30;;;7.50;;
10045;SDS011;5063;50.878;4.742;2023-05-10T00:46:33;12.17;;;7.43;;
10045;SDS011;5063;50.878;4.742;2023-05-10T00:48:59;10.00;;;6.47;;
10045;SDS011;5063;50.878;4.742;2023-05-10T00:51:24;12.43;;;6.97;;
10045;SDS011;5063;50.878;4.742;2023-05-10T00:53:51;8.80;;;7.10;;
10045;SDS011;5063;50.878;4.742;2023-05-10T00:56:17;14.73;;;7.67;;
10045;SDS011;5063;50.878;4.742;2023-05-10T00:58:43;10.37;;;7.07;;
10045;SDS011;5063;50.878;4.742;2023-05-10T01:01:09;11.57;;;7.83;;
10045;SDS011;5063;50.878;4.742;2023-05-10T01:03:36;13.37;;;8.13;;
10045;SDS011;5063;50.878;4.742;2023-05-10T01:06:02;9.50;;;7.40;;
10045;SDS011;5063;50.878;4.742;2023-05-10T01:08:28;11.33;;;7.80;;
10045;SDS011;5063;50.878;4.742;2023-05-10T01:10:54;10.10;;;7.80;;
10045;SDS011;5063;50.878;4.742;2023-05-10T01:16:01;11.47;;;7.57;;
10045;SDS011;5063;50.878;4.742;2023-05-10T01:18:29;16.03;;;7.53;;
10045;SDS011;5063;50.878;4.742;2023-05-10T01:20:59;12.03;;;7.67;;
10045;SDS011;5063;50.878;4.742;2023-05-10T01:23:33;9.13;;;7.47;;
10045;SDS011;5063;50.878;4.742;2023-05-10T01:29:05;11.63;;;7.80;;
10045;SDS011;5063;50.878;4.742;2023-05-10T01:34:42;10.23;;;7.53;;
10045;SDS011;5063;50.878;4.742;2023-05-10T01:37:18;15.03;;;7.77;;
10045;SDS011;5063;50.878;4.742;2023-05-10T01:39:53;14.57;;;7.63;;
10045;SDS011;5063;50.878;4.742;2023-05-10T01:42:25;13.00;;;7.60;;
10045;SDS011;5063;50.878;4.742;2023-05-10T01:45:02;13.00;;;9.27;;
10045;SDS011;5063;50.878;4.742;2023-05-10T01:48:10;13.53;;;7.53;;
10045;SDS011;5063;50.878;4.742;2023-05-10T01:50:34;13.50;;;8.47;;
10045;SDS011;5063;50.878;4.742;2023-05-10T01:53:02;13.57;;;9.10;;
10045;SDS011;5063;50.878;4.742;2023-05-10T01:55:32;12.47;;;8.10;;
10045;SDS011;5063;50.878;4.742;2023-05-10T01:58:07;11.87;;;9.10;;
10045;SDS011;5063;50.878;4.742;2023-05-10T02:00:37;13.63;;;8.53;;
10045;SDS011;5063;50.878;4.742;2023-05-10T02:03:07;13.30;;;9.77;;
10045;SDS011;5063;50.878;4.742;2023-05-10T02:05:35;15.07;;;9.27;;
10045;SDS011;5063;50.878;4.742;2023-05-10T02:08:02;10.93;;;9.07;;
10045;SDS011;5063;50.878;4.742;2023-05-10T02:10:32;16.10;;;10.63;;
10045;SDS011;5063;50.878;4.742;2023-05-10T02:13:00;13.47;;;9.80;;
10045;SDS011;5063;50.878;4.742;2023-05-10T02:15:27;14.80;;;8.63;;
10045;SDS011;5063;50.878;4.742;2023-05-10T02:17:56;13.83;;;9.07;;
10045;SDS011;5063;50.878;4.742;2023-05-10T02:20:25;15.33;;;9.87;;
10045;SDS011;5063;50.878;4.742;2023-05-10T02:22:52;14.90;;;10.10;;
10045;SDS011;5063;50.878;4.742;2023-05-10T02:25:19;12.70;;;10.03;;
10045;SDS011;5063;50.878;4.742;2023-05-10T02:27:46;17.47;;;11.00;;
10045;SDS011;5063;50.878;4.742;2023-05-10T02:30:13;14.07;;;9.80;;
10045;SDS011;5063;50.878;4.742;2023-05-10T02:32:40;15.07;;;10.27;;
10045;SDS011;5063;50.878;4.742;2023-05-10T02:35:07;14.17;;;10.17;;
10045;SDS011;5063;50.878;4.742;2023-05-10T02:37:35;14.73;;;10.03;;
10045;SDS011;5063;50.878;4.742;2023-05-10T02:40:02;12.87;;;10.00;;
10045;SDS011;5063;50.878;4.742;2023-05-10T02:42:31;19.17;;;10.73;;
10045;SDS011;5063;50.878;4.742;2023-05-10T02:45:00;18.07;;;10.50;;
10045;SDS011;5063;50.878;4.742;2023-05-10T02:47:28;14.50;;;10.53;;
10045;SDS011;5063;50.878;4.742;2023-05-10T02:49:54;14.00;;;10.47;;
10045;SDS011;5063;50.878;4.742;2023-05-10T02:52:25;13.33;;;9.47;;
10045;SDS011;5063;50.878;4.742;2023-05-10T02:54:54;15.20;;;10.77;;
10045;SDS011;5063;50.878;4.742;2023-05-10T02:57:25;13.00;;;10.07;;
10045;SDS011;5063;50.878;4.742;2023-05-10T02:59:53;14.90;;;10.67;;
10045;SDS011;5063;50.878;4.742;2023-05-10T03:02:20;14.70;;;10.47;;
10045;SDS011;5063;50.878;4.742;2023-05-10T03:04:46;13.07;;;9.37;;
10045;SDS011;5063;50.878;4.742;2023-05-10T03:07:11;12.47;;;9.43;;
10045;SDS011;5063;50.878;4.742;2023-05-10T03:09:38;14.57;;;9.80;;
10045;SDS011;5063;50.878;4.742;2023-05-10T03:12:11;14.20;;;9.83;;
10045;SDS011;5063;50.878;4.742;2023-05-10T03:15:10;14.30;;;11.00;;
10045;SDS011;5063;50.878;4.742;2023-05-10T03:18:01;13.60;;;10.80;;
10045;SDS011;5063;50.878;4.742;2023-05-10T03:20:42;15.67;;;10.77;;
10045;SDS011;5063;50.878;4.742;2023-05-10T03:25:50;15.73;;;10.13;;
10045;SDS011;5063;50.878;4.742;2023-05-10T03:28:17;18.13;;;10.63;;
10045;SDS011;5063;50.878;4.742;2023-05-10T03:30:45;14.43;;;9.33;;
10045;SDS011;5063;50.878;4.742;2023-05-10T03:33:11;15.57;;;10.60;;
10045;SDS011;5063;50.878;4.742;2023-05-10T03:35:38;16.37;;;10.00;;
10045;SDS011;5063;50.878;4.742;2023-05-10T03:38:04;16.13;;;9.53;;
10045;SDS011;5063;50.878;4.742;2023-05-10T03:40:30;17.53;;;10.43;;
10045;SDS011;5063;50.878;4.742;2023-05-10T03:42:57;14.73;;;9.60;;
10045;SDS011;5063;50.878;4.742;2023-05-10T03:45:23;15.50;;;9.40;;
10045;SDS011;5063;50.878;4.742;2023-05-10T03:47:49;13.30;;;9.53;;
10045;SDS011;5063;50.878;4.742;2023-05-10T03:50:16;16.80;;;9.97;;
10045;SDS011;5063;50.878;4.742;2023-05-10T03:52:42;14.40;;;8.87;;
10045;SDS011;5063;50.878;4.742;2023-05-10T03:55:08;15.23;;;9.40;;
10045;SDS011;5063;50.878;4.742;2023-05-10T03:57:34;10.80;;;7.40;;
10045;SDS011;5063;50.878;4.742;2023-05-10T04:00:00;13.87;;;9.30;;
10045;SDS011;5063;50.878;4.742;2023-05-10T04:02:26;10.50;;;7.57;;
10045;SDS011;5063;50.878;4.742;2023-05-10T04:04:52;12.13;;;8.40;;
10045;SDS011;5063;50.878;4.742;2023-05-10T04:07:17;14.90;;;9.10;;
10045;SDS011;5063;50.878;4.742;2023-05-10T04:09:43;11.63;;;9.20;;
10045;SDS011;5063;50.878;4.742;2023-05-10T04:12:09;11.93;;;8.90;;
10045;SDS011;5063;50.878;4.742;2023-05-10T04:14:34;14.70;;;10.33;;
10045;SDS011;5063;50.878;4.742;2023-05-10T04:17:00;16.23;;;11.40;;
10045;SDS011;5063;50.878;4.742;2023-05-10T04:19:32;17.97;;;12.37;;
10045;SDS011;5063;50.878;4.742;2023-05-10T04:21:58;19.70;;;12.70;;
10045;SDS011;5063;50.878;4.742;2023-05-10T04:24:25;17.17;;;12.27;;
10045;SDS011;5063;50.878;4.742;2023-05-10T04:26:51;19.27;;;12.73;;
10045;SDS011;5063;50.878;4.742;2023-05-10T04:29:17;19.27;;;13.70;;
10045;SDS011;5063;50.878;4.742;2023-05-10T04:31:43;21.93;;;13.40;;
10045;SDS011;5063;50.878;4.742;2023-05-10T04:34:09;21.67;;;13.80;;
10045;SDS011;5063;50.878;4.742;2023-05-10T04:36:35;20.20;;;13.50;;
10045;SDS011;5063;50.878;4.742;2023-05-10T04:39:02;20.57;;;13.53;;
10045;SDS011;5063;50.878;4.742;2023-05-10T04:41:28;17.43;;;12.83;;
10045;SDS011;5063;50.878;4.742;2023-05-10T04:43:54;19.87;;;13.80;;
10045;SDS011;5063;50.878;4.742;2023-05-10T04:46:20;19.97;;;14.10;;
10045;SDS011;5063;50.878;4.742;2023-05-10T04:48:46;25.30;;;14.57;;
10045;SDS011;5063;50.878;4.742;2023-05-10T04:51:12;23.27;;;14.63;;
10045;SDS011;5063;50.878;4.742;2023-05-10T04:53:38;21.53;;;13.93;;
10045;SDS011;5063;50.878;4.742;2023-05-10T04:56:04;21.30;;;14.23;;
10045;SDS011;5063;50.878;4.742;2023-05-10T04:58:30;20.57;;;14.80;;
10045;SDS011;5063;50.878;4.742;2023-05-10T05:00:57;20.87;;;14.50;;
10045;SDS011;5063;50.878;4.742;2023-05-10T05:03:22;23.80;;;14.23;;
10045;SDS011;5063;50.878;4.742;2023-05-10T05:05:48;25.93;;;14.60;;
10045;SDS011;5063;50.878;4.742;2023-05-10T05:08:14;20.73;;;14.53;;
10045;SDS011;5063;50.878;4.742;2023-05-10T05:10:39;22.93;;;14.93;;
10045;SDS011;5063;50.878;4.742;2023-05-10T05:13:05;22.07;;;15.20;;
10045;SDS011;5063;50.878;4.742;2023-05-10T05:15:31;25.20;;;15.73;;
10045;SDS011;5063;50.878;4.742;2023-05-10T05:17:57;21.57;;;15.77;;
10045;SDS011;5063;50.878;4.742;2023-05-10T05:20:22;24.20;;;15.63;;
10045;SDS011;5063;50.878;4.742;2023-05-10T05:22:48;23.43;;;15.83;;
10045;SDS011;5063;50.878;4.742;2023-05-10T05:25:14;23.83;;;15.87;;
10045;SDS011;5063;50.878;4.742;2023-05-10T05:27:40;27.60;;;16.63;;
10045;SDS011;5063;50.878;4.742;2023-05-10T05:30:06;24.87;;;15.97;;
10045;SDS011;5063;50.878;4.742;2023-05-10T05:32:33;25.77;;;16.47;;
10045;SDS011;5063;50.878;4.742;2023-05-10T05:34:58;24.93;;;17.00;;
10045;SDS011;5063;50.878;4.742;2023-05-10T05:37:24;26.73;;;17.83;;
10045;SDS011;5063;50.878;4.742;2023-05-10T05:39:50;23.03;;;16.80;;
10045;SDS011;5063;50.878;4.742;2023-05-10T05:42:16;25.20;;;16.27;;
10045;SDS011;5063;50.878;4.742;2023-05-10T05:44:44;24.80;;;17.07;;
10045;SDS011;5063;50.878;4.742;2023-05-10T05:47:09;22.63;;;16.27;;
10045;SDS011;5063;50.878;4.742;2023-05-10T05:49:35;22.80;;;16.07;;
10045;SDS011;5063;50.878;4.742;2023-05-10T05:52:02;23.20;;;16.00;;
10045;SDS011;5063;50.878;4.742;2023-05-10T05:54:28;22.83;;;16.23;;
10045;SDS011;5063;50.878;4.742;2023-05-10T05:56:56;21.90;;;16.00;;
10045;SDS011;5063;50.878;4.742;2023-05-10T05:59:23;21.03;;;14.63;;
10045;SDS011;5063;50.878;4.742;2023-05-10T06:01:49;22.93;;;16.17;;
10045;SDS011;5063;50.878;4.742;2023-05-10T06:04:16;24.37;;;16.83;;
10045;SDS011;5063;50.878;4.742;2023-05-10T06:06:42;22.90;;;15.30;;
10045;SDS011;5063;50.878;4.742;2023-05-10T06:09:08;26.90;;;16.83;;
10045;SDS011;5063;50.878;4.742;2023-05-10T06:11:34;22.50;;;14.83;;
10045;SDS011;5063;50.878;4.742;2023-05-10T06:14:01;20.23;;;13.93;;
10045;SDS011;5063;50.878;4.742;2023-05-10T06:16:28;24.67;;;16.00;;
10045;SDS011;5063;50.878;4.742;2023-05-10T06:18:54;21.27;;;15.00;;
10045;SDS011;5063;50.878;4.742;2023-05-10T06:21:20;20.00;;;15.43;;
10045;SDS011;5063;50.878;4.742;2023-05-10T06:23:46;22.00;;;15.47;;
10045;SDS011;5063;50.878;4.742;2023-05-10T06:26:12;22.73;;;14.97;;
10045;SDS011;5063;50.878;4.742;2023-05-10T06:28:38;22.17;;;16.27;;
10045;SDS011;5063;50.878;4.742;2023-05-10T06:31:05;24.23;;;16.73;;
10045;SDS011;5063;50.878;4.742;2023-05-10T06:33:31;22.43;;;15.60;;
10045;SDS011;5063;50.878;4.742;2023-05-10T06:35:57;20.40;;;16.97;;
10045;SDS011;5063;50.878;4.742;2023-05-10T06:38:23;24.33;;;16.77;;
10045;SDS011;5063;50.878;4.742;2023-05-10T06:40:49;22.43;;;16.70;;
10045;SDS011;5063;50.878;4.742;2023-05-10T06:43:15;21.87;;;16.23;;
10045;SDS011;5063;50.878;4.742;2023-05-10T06:45:41;21.97;;;15.93;;
10045;SDS011;5063;50.878;4.742;2023-05-10T06:48:07;22.67;;;17.37;;
10045;SDS011;5063;50.878;4.742;2023-05-10T06:50:33;23.40;;;15.60;;
10045;SDS011;5063;50.878;4.742;2023-05-10T06:52:59;22.13;;;15.13;;
10045;SDS011;5063;50.878;4.742;2023-05-10T06:55:27;20.30;;;14.70;;
10045;SDS011;5063;50.878;4.742;2023-05-10T06:57:53;18.00;;;13.53;;
10045;SDS011;5063;50.878;4.742;2023-05-10T07:00:19;16.70;;;13.17;;
10045;SDS011;5063;50.878;4.742;2023-05-10T07:02:45;14.53;;;11.73;;
10045;SDS011;5063;50.878;4.742;2023-05-10T07:05:12;14.77;;;10.90;;
10045;SDS011;5063;50.878;4.742;2023-05-10T07:07:38;8.77;;;7.77;;
10045;SDS011;5063;50.878;4.742;2023-05-10T07:10:04;7.90;;;6.37;;
10045;SDS011;5063;50.878;4.742;2023-05-10T07:12:31;7.13;;;4.97;;
10045;SDS011;5063;50.878;4.742;2023-05-10T07:14:56;8.63;;;5.17;;
10045;SDS011;5063;50.878;4.742;2023-05-10T07:17:22;4.47;;;3.67;;
10045;SDS011;5063;50.878;4.742;2023-05-10T07:19:48;8.20;;;4.30;;
10045;SDS011;5063;50.878;4.742;2023-05-10T07:22:17;5.30;;;4.00;;
10045;SDS011;5063;50.878;4.742;2023-05-10T07:24:43;9.17;;;5.07;;
10045;SDS011;5063;50.878;4.742;2023-05-10T07:27:09;7.20;;;4.43;;
10045;SDS011;5063;50.878;4.742;2023-05-10T07:29:35;5.37;;;4.83;;
10045;SDS011;5063;50.878;4.742;2023-05-10T07:32:01;6.40;;;4.80;;
10045;SDS011;5063;50.878;4.742;2023-05-10T07:34:27;7.40;;;5.03;;
10045;SDS011;5063;50.878;4.742;2023-05-10T07:36:55;9.73;;;5.30;;
10045;SDS011;5063;50.878;4.742;2023-05-10T07:39:21;5.50;;;4.90;;
10045;SDS011;5063;50.878;4.742;2023-05-10T07:41:47;6.00;;;4.70;;
10045;SDS011;5063;50.878;4.742;2023-05-10T07:44:13;5.20;;;3.60;;
10045;SDS011;5063;50.878;4.742;2023-05-10T07:46:38;5.30;;;4.00;;
10045;SDS011;5063;50.878;4.742;2023-05-10T07:49:04;6.53;;;3.63;;
10045;SDS011;5063;50.878;4.742;2023-05-10T07:51:30;5.63;;;3.73;;
10045;SDS011;5063;50.878;4.742;2023-05-10T07:53:56;6.40;;;3.60;;
10045;SDS011;5063;50.878;4.742;2023-05-10T07:56:26;4.83;;;3.60;;
10045;SDS011;5063;50.878;4.742;2023-05-10T07:58:56;5.80;;;3.80;;
10045;SDS011;5063;50.878;4.742;2023-05-10T08:01:26;5.60;;;3.90;;
10045;SDS011;5063;50.878;4.742;2023-05-10T08:03:54;8.07;;;3.60;;
10045;SDS011;5063;50.878;4.742;2023-05-10T08:06:20;5.73;;;4.20;;
10045;SDS011;5063;50.878;4.742;2023-05-10T08:08:46;8.23;;;4.80;;
10045;SDS011;5063;50.878;4.742;2023-05-10T08:11:18;9.10;;;6.07;;
10045;SDS011;5063;50.878;4.742;2023-05-10T08:13:45;6.30;;;5.60;;
10045;SDS011;5063;50.878;4.742;2023-05-10T08:16:12;9.67;;;6.17;;
10045;SDS011;5063;50.878;4.742;2023-05-10T08:18:38;11.97;;;7.23;;
10045;SDS011;5063;50.878;4.742;2023-05-10T08:21:05;9.50;;;7.03;;
10045;SDS011;5063;50.878;4.742;2023-05-10T08:23:30;9.10;;;7.50;;
10045;SDS011;5063;50.878;4.742;2023-05-10T08:25:56;13.73;;;8.77;;
10045;SDS011;5063;50.878;4.742;2023-05-10T08:28:22;11.33;;;7.67;;
10045;SDS011;5063;50.878;4.742;2023-05-10T08:30:49;9.77;;;7.70;;
10045;SDS011;5063;50.878;4.742;2023-05-10T08:33:15;11.30;;;7.20;;
10045;SDS011;5063;50.878;4.742;2023-05-10T08:35:42;15.33;;;7.63;;
10045;SDS011;5063;50.878;4.742;2023-05-10T08:38:08;11.33;;;8.47;;
10045;SDS011;5063;50.878;4.742;2023-05-10T08:40:34;11.93;;;8.53;;
10045;SDS011;5063;50.878;4.742;2023-05-10T08:43:05;10.23;;;7.53;;
10045;SDS011;5063;50.878;4.742;2023-05-10T08:45:33;10.10;;;7.40;;
10045;SDS011;5063;50.878;4.742;2023-05-10T08:48:05;11.63;;;8.63;;
10045;SDS011;5063;50.878;4.742;2023-05-10T08:50:34;14.10;;;7.47;;
10045;SDS011;5063;50.878;4.742;2023-05-10T08:53:03;12.97;;;7.77;;
10045;SDS011;5063;50.878;4.742;2023-05-10T08:55:40;10.57;;;7.50;;
10045;SDS011;5063;50.878;4.742;2023-05-10T08:58:07;11.73;;;7.53;;
10045;SDS011;5063;50.878;4.742;2023-05-10T09:00:34;9.27;;;6.77;;
10045;SDS011;5063;50.878;4.742;2023-05-10T09:03:01;10.20;;;6.80;;
10045;SDS011;5063;50.878;4.742;2023-05-10T09:05:27;8.10;;;6.30;;
10045;SDS011;5063;50.878;4.742;2023-05-10T09:07:53;7.57;;;5.80;;
10045;SDS011;5063;50.878;4.742;2023-05-10T09:10:19;10.43;;;6.80;;
10045;SDS011;5063;50.878;4.742;2023-05-10T09:12:46;8.03;;;6.33;;
10045;SDS011;5063;50.878;4.742;2023-05-10T09:15:16;11.33;;;6.27;;
10045;SDS011;5063;50.878;4.742;2023-05-10T09:17:44;7.30;;;6.47;;
10045;SDS011;5063;50.878;4.742;2023-05-10T09:20:11;7.57;;;6.17;;
10045;SDS011;5063;50.878;4.742;2023-05-10T09:22:37;7.83;;;6.13;;
10045;SDS011;5063;50.878;4.742;2023-05-10T09:25:10;7.83;;;6.00;;
10045;SDS011;5063;50.878;4.742;2023-05-10T09:27:38;7.10;;;5.23;;
10045;SDS011;5063;50.878;4.742;2023-05-10T09:30:10;8.43;;;5.23;;
10045;SDS011;5063;50.878;4.742;2023-05-10T09:32:44;5.87;;;4.80;;
10045;SDS011;5063;50.878;4.742;2023-05-10T09:35:14;6.43;;;4.73;;
10045;SDS011;5063;50.878;4.742;2023-05-10T09:37:42;7.33;;;4.53;;
10045;SDS011;5063;50.878;4.742;2023-05-10T09:40:12;5.37;;;4.53;;
10045;SDS011;5063;50.878;4.742;2023-05-10T09:45:25;6.37;;;4.30;;
10045;SDS011;5063;50.878;4.742;2023-05-10T09:47:52;7.00;;;4.43;;
10045;SDS011;5063;50.878;4.742;2023-05-10T09:50:18;5.57;;;4.27;;
10045;SDS011;5063;50.878;4.742;2023-05-10T09:52:55;4.67;;;3.87;;
10045;SDS011;5063;50.878;4.742;2023-05-10T09:55:37;4.43;;;3.33;;
10045;SDS011;5063;50.878;4.742;2023-05-10T09:58:05;4.17;;;3.30;;
10045;SDS011;5063;50.878;4.742;2023-05-10T10:00:36;3.60;;;2.87;;
10045;SDS011;5063;50.878;4.742;2023-05-10T10:03:03;3.40;;;3.10;;
10045;SDS011;5063;50.878;4.742;2023-05-10T10:05:33;3.13;;;2.83;;
10045;SDS011;5063;50.878;4.742;2023-05-10T10:08:01;3.93;;;2.70;;
10045;SDS011;5063;50.878;4.742;2023-05-10T10:10:29;3.77;;;3.10;;
10045;SDS011;5063;50.878;4.742;2023-05-10T10:12:56;3.10;;;2.80;;
10045;SDS011;5063;50.878;4.742;2023-05-10T10:15:23;2.80;;;2.60;;
10045;SDS011;5063;50.878;4.742;2023-05-10T10:17:49;4.13;;;2.77;;
10045;SDS011;5063;50.878;4.742;2023-05-10T10:20:16;2.77;;;2.20;;
10045;SDS011;5063;50.878;4.742;2023-05-10T10:22:43;2.17;;;1.97;;
10045;SDS011;5063;50.878;4.742;2023-05-10T10:25:10;2.33;;;2.13;;
10045;SDS011;5063;50.878;4.742;2023-05-10T10:36:11;3.60;;;2.13;;
10045;SDS011;5063;50.878;4.742;2023-05-10T10:47:00;3.40;;;2.10;;
10045;SDS011;5063;50.878;4.742;2023-05-10T10:49:48;4.27;;;2.23;;
10045;SDS011;5063;50.878;4.742;2023-05-10T10:57:32;3.67;;;1.83;;
10045;SDS011;5063;50.878;4.742;2023-05-10T11:00:32;1.80;;;1.70;;
10045;SDS011;5063;50.878;4.742;2023-05-10T11:08:01;1.50;;;1.40;;
10045;SDS011;5063;50.878;4.742;2023-05-10T11:10:39;1.30;;;1.20;;
10045;SDS011;5063;50.878;4.742;2023-05-10T11:13:13;1.33;;;1.23;;
10045;SDS011;5063;50.878;4.742;2023-05-10T11:15:40;1.27;;;1.17;;
10045;SDS011;5063;50.878;4.742;2023-05-10T11:18:17;1.50;;;1.40;;
10045;SDS011;5063;50.878;4.742;2023-05-10T11:20:57;1.97;;;1.10;;
10045;SDS011;5063;50.878;4.742;2023-05-10T11:23:29;1.23;;;1.13;;
10045;SDS011;5063;50.878;4.742;2023-05-10T11:25:56;2.65;;;1.10;;
10045;SDS011;5063;50.878;4.742;2023-05-10T11:28:22;1.25;;;1.15;;
10045;SDS011;5063;50.878;4.742;2023-05-10T11:30:48;1.05;;;1.00;;
10045;SDS011;5063;50.878;4.742;2023-05-10T11:33:17;1.17;;;1.02;;
10045;SDS011;5063;50.878;4.742;2023-05-10T11:35:44;1.30;;;0.82;;
10045;SDS011;5063;50.878;4.742;2023-05-10T11:38:11;0.88;;;0.88;;
10045;SDS011;5063;50.878;4.742;2023-05-10T11:40:37;2.25;;;0.93;;
10045;SDS011;5063;50.878;4.742;2023-05-10T11:43:04;1.15;;;0.90;;
10045;SDS011;5063;50.878;4.742;2023-05-10T11:45:33;1.10;;;1.00;;
10045;SDS011;5063;50.878;4.742;2023-05-10T11:47:59;1.67;;;1.10;;
10045;SDS011;5063;50.878;4.742;2023-05-10T11:50:25;1.20;;;1.10;;
10045;SDS011;5063;50.878;4.742;2023-05-10T11:52:51;1.08;;;1.02;;
10045;SDS011;5063;50.878;4.742;2023-05-10T11:55:18;0.93;;;0.80;;
10045;SDS011;5063;50.878;4.742;2023-05-10T11:57:44;1.02;;;0.93;;
10045;SDS011;5063;50.878;4.742;2023-05-10T12:00:11;1.00;;;1.00;;
10045;SDS011;5063;50.878;4.742;2023-05-10T12:02:38;0.80;;;0.80;;
10045;SDS011;5063;50.878;4.742;2023-05-10T12:05:05;1.00;;;1.00;;
10045;SDS011;5063;50.878;4.742;2023-05-10T12:07:32;1.75;;;1.30;;
10045;SDS011;5063;50.878;4.742;2023-05-10T12:10:11;1.30;;;1.20;;
10045;SDS011;5063;50.878;4.742;2023-05-10T12:12:43;1.20;;;1.10;;
10045;SDS011;5063;50.878;4.742;2023-05-10T12:15:20;1.40;;;1.30;;
10045;SDS011;5063;50.878;4.742;2023-05-10T12:17:47;1.88;;;1.58;;
10045;SDS011;5063;50.878;4.742;2023-05-10T12:20:14;1.50;;;1.40;;
10045;SDS011;5063;50.878;4.742;2023-05-10T12:22:51;3.78;;;1.40;;
10045;SDS011;5063;50.878;4.742;2023-05-10T12:25:22;1.50;;;1.40;;
10045;SDS011;5063;50.878;4.742;2023-05-10T12:27:51;1.60;;;1.50;;
10045;SDS011;5063;50.878;4.742;2023-05-10T12:30:25;1.50;;;1.40;;
10045;SDS011;5063;50.878;4.742;2023-05-10T12:32:52;3.38;;;1.58;;
10045;SDS011;5063;50.878;4.742;2023-05-10T12:35:18;2.13;;;1.58;;
10045;SDS011;5063;50.878;4.742;2023-05-10T12:37:49;1.60;;;1.50;;
10045;SDS011;5063;50.878;4.742;2023-05-10T12:40:16;1.67;;;1.48;;
10045;SDS011;5063;50.878;4.742;2023-05-10T12:42:42;1.60;;;1.50;;
10045;SDS011;5063;50.878;4.742;2023-05-10T12:45:10;1.95;;;1.40;;
10045;SDS011;5063;50.878;4.742;2023-05-10T12:47:36;4.10;;;2.00;;
10045;SDS011;5063;50.878;4.742;2023-05-10T12:50:02;2.28;;;1.50;;
10045;SDS011;5063;50.878;4.742;2023-05-10T12:52:29;3.17;;;1.65;;
10045;SDS011;5063;50.878;4.742;2023-05-10T12:54:58;1.73;;;1.40;;
10045;SDS011;5063;50.878;4.742;2023-05-10T12:57:25;1.50;;;1.40;;
10045;SDS011;5063;50.878;4.742;2023-05-10T12:59:51;2.92;;;1.35;;
10045;SDS011;5063;50.878;4.742;2023-05-10T13:02:17;1.70;;;1.60;;
10045;SDS011;5063;50.878;4.742;2023-05-10T13:04:43;1.90;;;1.40;;
10045;SDS011;5063;50.878;4.742;2023-05-10T13:07:09;1.50;;;1.40;;
10045;SDS011;5063;50.878;4.742;2023-05-10T13:09:35;2.05;;;1.40;;
10045;SDS011;5063;50.878;4.742;2023-05-10T13:12:01;2.33;;;1.33;;
10045;SDS011;5063;50.878;4.742;2023-05-10T13:14:27;1.38;;;1.27;;
10045;SDS011;5063;50.878;4.742;2023-05-10T13:16:54;1.00;;;0.95;;
10045;SDS011;5063;50.878;4.742;2023-05-10T13:19:19;1.38;;;1.27;;
10045;SDS011;5063;50.878;4.742;2023-05-10T13:21:45;1.40;;;1.30;;
10045;SDS011;5063;50.878;4.742;2023-05-10T13:24:11;1.58;;;1.17;;
10045;SDS011;5063;50.878;4.742;2023-05-10T13:26:41;1.35;;;1.25;;
10045;SDS011;5063;50.878;4.742;2023-05-10T13:29:07;1.60;;;1.48;;
10045;SDS011;5063;50.878;4.742;2023-05-10T13:31:33;1.67;;;1.58;;
10045;SDS011;5063;50.878;4.742;2023-05-10T13:34:00;1.65;;;1.30;;
10045;SDS011;5063;50.878;4.742;2023-05-10T13:36:26;1.35;;;1.23;;
10045;SDS011;5063;50.878;4.742;2023-05-10T13:38:51;1.85;;;1.50;;
10045;SDS011;5063;50.878;4.742;2023-05-10T13:41:17;1.60;;;1.50;;
10045;SDS011;5063;50.878;4.742;2023-05-10T13:43:43;2.17;;;1.30;;
10045;SDS011;5063;50.878;4.742;2023-05-10T13:46:09;2.22;;;1.10;;
10045;SDS011;5063;50.878;4.742;2023-05-10T13:48:34;1.40;;;1.30;;
10045;SDS011;5063;50.878;4.742;2023-05-10T13:51:02;1.35;;;1.25;;
10045;SDS011;5063;50.878;4.742;2023-05-10T13:53:28;1.60;;;1.50;;
10045;SDS011;5063;50.878;4.742;2023-05-10T13:55:54;1.90;;;1.20;;
10045;SDS011;5063;50.878;4.742;2023-05-10T13:58:19;2.08;;;1.42;;
10045;SDS011;5063;50.878;4.742;2023-05-10T14:00:45;1.80;;;1.70;;
10045;SDS011;5063;50.878;4.742;2023-05-10T14:03:11;2.65;;;1.40;;
10045;SDS011;5063;50.878;4.742;2023-05-10T14:05:37;2.63;;;1.73;;
10045;SDS011;5063;50.878;4.742;2023-05-10T14:08:03;2.33;;;1.70;;
10045;SDS011;5063;50.878;4.742;2023-05-10T14:10:29;1.98;;;1.75;;
10045;SDS011;5063;50.878;4.742;2023-05-10T14:12:55;2.05;;;1.60;;
10045;SDS011;5063;50.878;4.742;2023-05-10T14:15:20;4.45;;;1.40;;
10045;SDS011;5063;50.878;4.742;2023-05-10T14:17:46;2.20;;;1.40;;
10045;SDS011;5063;50.878;4.742;2023-05-10T14:20:12;1.67;;;1.58;;
10045;SDS011;5063;50.878;4.742;2023-05-10T14:22:38;1.65;;;1.55;;
10045;SDS011;5063;50.878;4.742;2023-05-10T14:25:04;1.90;;;1.80;;
10045;SDS011;5063;50.878;4.742;2023-05-10T14:27:30;2.67;;;1.90;;
10045;SDS011;5063;50.878;4.742;2023-05-10T14:29:57;1.80;;;1.70;;
10045;SDS011;5063;50.878;4.742;2023-05-10T14:32:23;2.40;;;2.20;;
10045;SDS011;5063;50.878;4.742;2023-05-10T14:34:48;2.30;;;2.10;;
10045;SDS011;5063;50.878;4.742;2023-05-10T14:37:14;2.20;;;2.00;;
10045;SDS011;5063;50.878;4.742;2023-05-10T14:39:40;2.30;;;2.10;;
10045;SDS011;5063;50.878;4.742;2023-05-10T14:42:07;2.22;;;2.00;;
10045;SDS011;5063;50.878;4.742;2023-05-10T14:44:33;2.72;;;2.38;;
10045;SDS011;5063;50.878;4.742;2023-05-10T14:46:59;2.50;;;2.10;;
10045;SDS011;5063;50.878;4.742;2023-05-10T14:49:25;3.47;;;2.63;;
10045;SDS011;5063;50.878;4.742;2023-05-10T14:51:51;2.53;;;2.33;;
10045;SDS011;5063;50.878;4.742;2023-05-10T14:54:17;2.80;;;2.55;;
10045;SDS011;5063;50.878;4.742;2023-05-10T14:56:43;3.78;;;2.88;;
10045;SDS011;5063;50.878;4.742;2023-05-10T14:59:09;3.13;;;2.83;;
10045;SDS011;5063;50.878;4.742;2023-05-10T15:01:35;3.67;;;2.15;;
10045;SDS011;5063;50.878;4.742;2023-05-10T15:04:05;3.42;;;2.67;;
10045;SDS011;5063;50.878;4.742;2023-05-10T15:06:31;3.50;;;2.63;;
10045;SDS011;5063;50.878;4.742;2023-05-10T15:09:00;3.35;;;2.72;;
10045;SDS011;5063;50.878;4.742;2023-05-10T15:11:28;3.63;;;2.75;;
10045;SDS011;5063;50.878;4.742;2023-05-10T15:13:54;3.78;;;3.10;;
10045;SDS011;5063;50.878;4.742;2023-05-10T15:16:20;3.00;;;2.70;;
10045;SDS011;5063;50.878;4.742;2023-05-10T15:18:46;3.95;;;2.42;;
10045;SDS011;5063;50.878;4.742;2023-05-10T15:21:13;3.80;;;2.90;;
10045;SDS011;5063;50.878;4.742;2023-05-10T15:23:38;3.30;;;2.93;;
10045;SDS011;5063;50.878;4.742;2023-05-10T15:26:04;4.50;;;3.97;;
10045;SDS011;5063;50.878;4.742;2023-05-10T15:28:30;7.22;;;3.90;;
10045;SDS011;5063;50.878;4.742;2023-05-10T15:30:56;3.80;;;3.45;;
10045;SDS011;5063;50.878;4.742;2023-05-10T15:33:22;4.18;;;3.10;;